Accueil
METAR-TAF:

METAR-TAF

Aéroports :

Aydın, Turquie

latitude: 37-48-54N, longitude: 27-53-21E, altitude: 31 m

Observation

Le bulletin a été fait il y a 19 minutes, à 06:50 UTC
Vent 5 kt de est, variant entre nord-est et est/sud-est
Température 19°C
Humidité 78%
Pression 1015 hPa
Visibilité: 2000 m
brume

METAR: LTBD 170650Z 08005KT 050V110 5000 2000E BR NSC 19/15 Q1015

Heure: 10:09 (07:09 UTC)

Prévision

Le bulletin a été fait il y a 2 heures et 29 minutes, à 04:40 UTC
Prévision valable du 17 à 06 UTC au 17 à 15 UTC
Vent 2 kt de direction variable
Visibilité 10 km ou plus
pas de nuages en-dessous de 1500 mètres et pas de cumulonimbus.
Evoluant progressivement
du 17 à 06 UTC au 17 à 09 UTC
Quelques nuages à une hauteur de 3500 ft
Temporairement
du 17 à 12 UTC au 17 à 15 UTC
Vent 12 kt de ouest/nord-ouest

TAF: LTBD 170440Z 1706/1715 VRB02KT CAVOK BECMG 1706/1709 FEW035 TEMPO 1712/1715 29012KT

Observations et prévisions météorologiques de plus de 4000 aéroports (messages METAR et TAF).

Les stations disponibles sont représentées par des disques jaunes et rouges sur la carte.

Passer la souris dessus pour voir le nom de la station.

Cliquer dessus pour voir les observations et prévisions météorologiques.

Pour changer de carte: cliquez sur les boutons verts avec une croix noire pour zoomer, sur le bouton vert avec un tiret pour effectuer un zoom arrière, ou sur les flèches vertes pour les cartes adjacentes.


METAR-TAF: